createdAt,value
2023-05-19T00:02:27.258Z,3.60
2023-05-19T00:04:55.060Z,4.20
2023-05-19T00:07:28.821Z,4.20
2023-05-19T00:09:56.253Z,3.90
2023-05-19T00:12:23.888Z,4.30
2023-05-19T00:14:51.804Z,4.37
2023-05-19T00:17:20.102Z,3.90
2023-05-19T00:19:47.331Z,4.77
2023-05-19T00:22:14.669Z,4.40
2023-05-19T00:24:41.934Z,4.17
2023-05-19T00:27:09.311Z,4.37
2023-05-19T00:29:36.598Z,4.30
2023-05-19T00:32:04.099Z,4.33
2023-05-19T00:34:31.423Z,3.60
2023-05-19T00:36:59.032Z,4.40
2023-05-19T00:39:26.377Z,4.17
2023-05-19T00:41:54.051Z,4.00
2023-05-19T00:44:21.242Z,4.40
2023-05-19T00:46:48.462Z,4.37
2023-05-19T00:49:16.405Z,4.23
2023-05-19T00:51:44.260Z,4.60
2023-05-19T00:54:11.611Z,3.80
2023-05-19T00:56:39.091Z,4.33
2023-05-19T00:59:08.208Z,4.57
2023-05-19T01:01:36.580Z,5.20
2023-05-19T01:04:05.174Z,4.63
2023-05-19T01:06:32.682Z,4.77
2023-05-19T01:08:59.962Z,4.97
2023-05-19T01:11:27.273Z,4.80
2023-05-19T01:13:55.016Z,5.00
2023-05-19T01:16:30.713Z,4.80
2023-05-19T01:19:36.800Z,4.60
2023-05-19T01:22:26.178Z,5.83
2023-05-19T01:25:42.596Z,4.83
2023-05-19T01:28:35.948Z,4.60
2023-05-19T01:31:06.193Z,6.17
2023-05-19T01:33:33.952Z,4.60
2023-05-19T01:36:03.756Z,5.37
2023-05-19T01:38:33.944Z,5.43
2023-05-19T01:41:04.316Z,4.77
2023-05-19T01:43:32.548Z,4.87
2023-05-19T01:46:01.107Z,4.97
2023-05-19T01:48:29.802Z,5.10
2023-05-19T01:50:58.929Z,4.70
2023-05-19T01:53:26.841Z,5.30
2023-05-19T01:55:56.158Z,5.53
2023-05-19T01:58:43.921Z,6.13
2023-05-19T02:01:30.709Z,5.53
2023-05-19T02:04:18.492Z,5.70
2023-05-19T02:07:09.137Z,6.13
2023-05-19T02:09:52.370Z,6.70
2023-05-19T02:12:41.332Z,6.30
2023-05-19T02:15:15.999Z,5.37
2023-05-19T02:17:50.386Z,5.73
2023-05-19T02:20:18.471Z,6.10
2023-05-19T02:22:46.240Z,5.97
2023-05-19T02:25:14.432Z,5.97
2023-05-19T02:27:42.060Z,6.63
2023-05-19T02:30:09.801Z,5.73
2023-05-19T02:32:37.936Z,5.77
2023-05-19T02:35:06.116Z,6.00
2023-05-19T02:37:35.281Z,5.40
2023-05-19T02:40:02.658Z,6.37
2023-05-19T02:42:30.355Z,5.47
2023-05-19T02:44:57.857Z,6.30
2023-05-19T02:47:25.718Z,6.30
2023-05-19T02:49:52.944Z,6.57
2023-05-19T02:52:20.206Z,6.57
2023-05-19T02:54:47.889Z,6.37
2023-05-19T02:57:16.145Z,7.13
2023-05-19T02:59:43.411Z,7.20
2023-05-19T03:02:11.917Z,5.77
2023-05-19T03:04:41.615Z,6.60
2023-05-19T03:07:16.349Z,6.50
2023-05-19T03:09:43.838Z,6.90
2023-05-19T03:12:11.057Z,5.53
2023-05-19T03:14:38.543Z,5.60
2023-05-19T03:17:08.017Z,6.70
2023-05-19T03:19:35.579Z,6.60
2023-05-19T03:22:02.813Z,6.33
2023-05-19T03:24:30.633Z,6.60
2023-05-19T03:26:57.879Z,7.30
2023-05-19T03:29:25.832Z,7.90
2023-05-19T03:31:53.853Z,7.70
2023-05-19T03:34:22.336Z,6.70
2023-05-19T03:36:50.236Z,7.30
2023-05-19T03:39:17.621Z,7.00
2023-05-19T03:41:46.409Z,7.30
2023-05-19T03:44:15.868Z,7.50
2023-05-19T03:46:43.835Z,8.63
2023-05-19T03:49:40.172Z,7.80
2023-05-19T03:52:36.200Z,7.63
2023-05-19T03:55:14.829Z,6.47
2023-05-19T03:57:44.826Z,7.10
2023-05-19T04:00:12.841Z,6.57
2023-05-19T04:02:41.973Z,7.13
2023-05-19T04:05:09.989Z,6.50
2023-05-19T04:07:38.339Z,7.13
2023-05-19T04:10:06.549Z,7.50
2023-05-19T04:12:33.985Z,7.60
2023-05-19T04:15:01.184Z,6.40
2023-05-19T04:17:28.493Z,7.00
2023-05-19T04:19:56.264Z,6.93
2023-05-19T04:22:24.175Z,6.93
2023-05-19T04:24:52.938Z,7.10
2023-05-19T04:27:22.057Z,6.50
2023-05-19T04:29:49.609Z,6.37
2023-05-19T04:32:19.631Z,6.93
2023-05-19T04:34:47.288Z,7.07
2023-05-19T04:37:20.998Z,7.13
2023-05-19T04:39:48.698Z,7.30
2023-05-19T04:42:19.213Z,6.63
2023-05-19T04:44:49.125Z,7.30
2023-05-19T04:47:16.539Z,6.47
2023-05-19T04:49:43.941Z,7.53
2023-05-19T04:52:11.853Z,7.20
2023-05-19T04:54:41.696Z,6.73
2023-05-19T04:57:10.910Z,6.43
2023-05-19T04:59:40.267Z,6.20
2023-05-19T05:02:09.969Z,7.43
2023-05-19T05:04:42.363Z,6.83
2023-05-19T05:07:12.755Z,6.77
2023-05-19T05:09:40.432Z,7.00
2023-05-19T05:12:09.939Z,7.27
2023-05-19T05:14:40.124Z,6.37
2023-05-19T05:17:09.598Z,7.00
2023-05-19T05:19:37.113Z,6.70
2023-05-19T05:22:06.499Z,6.90
2023-05-19T05:24:36.636Z,7.23
2023-05-19T05:27:05.732Z,7.47
2023-05-19T05:29:33.806Z,6.70
2023-05-19T05:32:04.304Z,6.57
2023-05-19T05:34:32.443Z,6.40
2023-05-19T05:36:59.699Z,7.00
2023-05-19T05:39:28.000Z,7.37
2023-05-19T05:41:55.472Z,7.30
2023-05-19T05:44:23.508Z,7.00
2023-05-19T05:46:51.608Z,7.40
2023-05-19T05:49:19.909Z,7.43
2023-05-19T05:52:01.510Z,6.63
2023-05-19T05:54:34.486Z,6.73
2023-05-19T05:57:03.300Z,7.00
2023-05-19T05:59:30.536Z,7.53
2023-05-19T06:01:57.796Z,7.33
2023-05-19T06:04:25.762Z,6.60
2023-05-19T06:06:57.206Z,7.50
2023-05-19T06:09:26.822Z,5.73
2023-05-19T06:11:54.642Z,6.40
2023-05-19T06:14:22.416Z,6.30
2023-05-19T06:17:13.427Z,6.20
2023-05-19T06:19:40.991Z,5.73
2023-05-19T06:22:08.503Z,6.60
2023-05-19T06:24:37.850Z,5.40
2023-05-19T06:27:06.523Z,5.00
2023-05-19T06:29:33.753Z,5.90
2023-05-19T06:32:04.329Z,6.90
2023-05-19T06:34:32.185Z,5.63
2023-05-19T06:36:59.721Z,4.90
2023-05-19T06:39:26.954Z,5.90
2023-05-19T06:41:55.382Z,4.73
2023-05-19T06:44:43.483Z,5.00
2023-05-19T06:47:13.004Z,4.57
2023-05-19T06:49:40.732Z,4.27
2023-05-19T06:52:08.931Z,4.20
2023-05-19T06:54:37.199Z,4.00
2023-05-19T06:57:05.603Z,3.27
2023-05-19T06:59:33.210Z,3.70
2023-05-19T07:02:02.405Z,3.60
2023-05-19T07:04:30.033Z,3.60
2023-05-19T07:06:57.654Z,4.20
2023-05-19T07:09:26.576Z,4.40
2023-05-19T07:11:56.115Z,3.57
2023-05-19T07:14:24.098Z,2.90
2023-05-19T07:16:52.377Z,2.63
2023-05-19T07:19:20.220Z,2.80
2023-05-19T07:21:48.715Z,3.50
2023-05-19T07:24:16.704Z,3.10
2023-05-19T07:26:44.935Z,3.30
2023-05-19T07:29:12.459Z,3.00
2023-05-19T07:31:40.163Z,3.17
2023-05-19T07:34:08.512Z,2.60
2023-05-19T07:36:36.232Z,2.50
2023-05-19T07:39:04.096Z,2.90
2023-05-19T07:41:32.316Z,2.00
2023-05-19T07:44:00.284Z,2.07
2023-05-19T07:46:27.758Z,2.80
2023-05-19T07:48:56.520Z,2.20
2023-05-19T07:51:24.499Z,2.10
2023-05-19T07:53:52.917Z,2.30
2023-05-19T07:56:21.441Z,1.83
2023-05-19T07:58:48.969Z,1.97
2023-05-19T08:01:26.150Z,2.37
2023-05-19T08:03:53.737Z,3.03
2023-05-19T08:06:22.382Z,2.70
2023-05-19T08:08:49.924Z,2.07
2023-05-19T08:11:17.594Z,2.33
2023-05-19T08:13:47.471Z,2.43
2023-05-19T08:16:15.821Z,1.83
2023-05-19T08:18:43.901Z,1.77
2023-05-19T08:21:11.724Z,2.53
2023-05-19T08:23:39.375Z,1.77
2023-05-19T08:26:06.899Z,1.70
2023-05-19T08:28:34.554Z,2.10
2023-05-19T08:31:02.023Z,2.30
2023-05-19T08:33:29.257Z,2.50
2023-05-19T08:35:58.016Z,2.03
2023-05-19T08:38:26.593Z,2.23
2023-05-19T08:40:54.292Z,2.47
2023-05-19T08:43:22.345Z,2.07
2023-05-19T08:45:49.937Z,1.93
2023-05-19T08:48:19.289Z,2.40
2023-05-19T08:50:53.641Z,2.10
2023-05-19T08:53:33.785Z,1.70
2023-05-19T08:56:10.930Z,2.53
2023-05-19T08:58:43.747Z,2.20
2023-05-19T09:01:14.264Z,2.40
2023-05-19T09:03:43.151Z,2.00
2023-05-19T09:06:14.470Z,1.77
2023-05-19T09:08:42.620Z,1.60
2023-05-19T09:11:11.064Z,1.90
2023-05-19T09:13:39.358Z,1.80
2023-05-19T09:16:07.997Z,1.90
2023-05-19T09:18:39.857Z,2.13
2023-05-19T09:21:07.875Z,1.90
2023-05-19T09:23:35.945Z,2.20
2023-05-19T09:26:07.044Z,2.07
2023-05-19T09:28:36.305Z,2.03
2023-05-19T09:31:10.192Z,2.00
2023-05-19T09:33:39.677Z,2.13
2023-05-19T09:36:08.406Z,1.60
2023-05-19T09:38:36.931Z,2.80
2023-05-19T09:41:05.715Z,1.97
2023-05-19T09:43:34.134Z,2.10
2023-05-19T09:46:04.675Z,2.43
2023-05-19T09:48:32.227Z,1.73
2023-05-19T09:51:01.362Z,2.47
2023-05-19T09:53:30.458Z,2.00
2023-05-19T09:55:58.777Z,1.90
2023-05-19T09:58:26.840Z,1.83
2023-05-19T10:00:57.056Z,2.17
2023-05-19T10:03:25.420Z,1.97
2023-05-19T10:05:53.376Z,1.73
2023-05-19T10:08:22.217Z,1.80
2023-05-19T10:10:50.065Z,2.33
2023-05-19T10:13:18.368Z,2.30
2023-05-19T10:15:58.356Z,2.40
2023-05-19T10:18:27.785Z,2.13
2023-05-19T10:20:55.812Z,1.80
2023-05-19T10:23:23.969Z,1.80
2023-05-19T10:25:54.270Z,1.97
2023-05-19T10:28:25.803Z,1.47
2023-05-19T10:30:56.417Z,1.80
2023-05-19T10:33:41.866Z,2.00
2023-05-19T10:36:30.981Z,2.27
2023-05-19T10:39:13.932Z,2.37
2023-05-19T10:42:05.997Z,2.70
2023-05-19T10:44:54.676Z,1.73
2023-05-19T10:47:25.799Z,1.70
2023-05-19T10:49:54.262Z,2.00
2023-05-19T10:52:23.401Z,1.70
2023-05-19T10:54:51.267Z,1.60
2023-05-19T10:57:20.793Z,1.70
2023-05-19T10:59:49.813Z,2.07
2023-05-19T11:02:44.989Z,1.60
2023-05-19T11:05:14.828Z,1.70
2023-05-19T11:07:44.380Z,1.53
2023-05-19T11:10:12.133Z,1.37
2023-05-19T11:12:45.034Z,1.50
2023-05-19T11:15:16.249Z,1.87
2023-05-19T11:17:48.265Z,1.70
2023-05-19T11:20:24.170Z,1.40
2023-05-19T11:23:08.157Z,1.93
2023-05-19T11:25:52.122Z,1.90
2023-05-19T11:28:22.682Z,1.60
2023-05-19T11:30:51.506Z,1.57
2023-05-19T11:33:20.194Z,1.70
2023-05-19T11:35:49.694Z,1.67
2023-05-19T11:38:18.564Z,1.70
2023-05-19T11:40:48.068Z,1.63
2023-05-19T11:43:16.504Z,1.60
2023-05-19T11:45:44.794Z,1.47
2023-05-19T11:48:12.897Z,1.30
2023-05-19T11:50:44.015Z,1.80
2023-05-19T11:53:13.437Z,1.67
2023-05-19T11:55:46.193Z,1.83
2023-05-19T11:58:13.807Z,1.50
2023-05-19T12:00:42.709Z,1.73
2023-05-19T12:03:10.443Z,1.60
2023-05-19T12:05:44.498Z,2.10
2023-05-19T12:08:12.923Z,1.77
2023-05-19T12:10:40.900Z,2.00
2023-05-19T12:13:09.995Z,1.50
2023-05-19T12:15:38.589Z,1.47
2023-05-19T12:18:06.501Z,1.53
2023-05-19T12:20:35.618Z,1.57
2023-05-19T12:23:04.372Z,1.43
2023-05-19T12:25:32.825Z,1.40
2023-05-19T12:28:02.860Z,1.50
2023-05-19T12:30:32.041Z,1.77
2023-05-19T12:33:00.159Z,1.60
2023-05-19T12:35:33.549Z,1.70
2023-05-19T12:38:04.907Z,1.43
2023-05-19T12:40:34.514Z,1.30
2023-05-19T12:43:01.871Z,1.67
2023-05-19T12:45:33.557Z,1.77
2023-05-19T12:48:04.758Z,1.40
2023-05-19T12:50:32.870Z,1.30
2023-05-19T12:53:00.490Z,2.03
2023-05-19T12:55:27.804Z,1.13
2023-05-19T12:57:57.545Z,1.37
2023-05-19T13:00:28.434Z,1.40
2023-05-19T13:03:07.074Z,1.53
2023-05-19T13:05:39.140Z,1.43
2023-05-19T13:08:08.705Z,1.40
2023-05-19T13:10:39.196Z,1.40
2023-05-19T13:13:24.650Z,1.40
2023-05-19T13:16:10.522Z,1.67
2023-05-19T13:18:56.854Z,1.57
2023-05-19T13:21:24.868Z,1.30
2023-05-19T13:23:53.277Z,1.63
2023-05-19T13:26:21.473Z,1.20
2023-05-19T13:28:48.970Z,1.80
2023-05-19T13:31:16.226Z,1.40
2023-05-19T13:33:43.515Z,1.60
2023-05-19T13:36:11.215Z,1.60
2023-05-19T13:38:40.169Z,1.40
2023-05-19T13:41:09.382Z,1.40
2023-05-19T13:43:38.317Z,1.50
2023-05-19T13:46:05.904Z,1.13
2023-05-19T13:48:33.147Z,1.50
2023-05-19T13:51:01.124Z,1.77
2023-05-19T13:53:29.578Z,1.70
2023-05-19T13:55:56.824Z,1.97
2023-05-19T13:58:24.917Z,1.50
2023-05-19T14:00:55.066Z,1.93
2023-05-19T14:03:22.661Z,1.60
2023-05-19T14:05:49.954Z,1.33
2023-05-19T14:08:18.673Z,1.63
2023-05-19T14:10:47.334Z,1.37
2023-05-19T14:13:30.818Z,1.50
2023-05-19T14:16:01.754Z,1.93
2023-05-19T14:18:28.985Z,1.87
2023-05-19T14:20:56.303Z,1.70
2023-05-19T14:23:23.519Z,1.60
2023-05-19T14:25:52.161Z,2.00
2023-05-19T14:28:19.282Z,1.80
2023-05-19T14:30:46.907Z,1.30
2023-05-19T14:33:14.257Z,1.50
2023-05-19T14:35:41.537Z,1.50
2023-05-19T14:38:08.790Z,1.30
2023-05-19T14:40:41.253Z,1.90
2023-05-19T14:43:09.147Z,1.57
2023-05-19T14:45:37.148Z,1.33
2023-05-19T14:48:05.039Z,1.80
2023-05-19T14:50:33.501Z,1.43
2023-05-19T14:53:01.280Z,2.10
2023-05-19T14:55:28.860Z,1.50
2023-05-19T14:57:56.518Z,1.60
2023-05-19T15:00:27.576Z,1.70
2023-05-19T15:02:56.025Z,1.50
2023-05-19T15:05:24.293Z,1.50
2023-05-19T15:07:52.071Z,1.50
2023-05-19T15:10:20.568Z,1.50
2023-05-19T15:12:48.304Z,1.40
2023-05-19T15:15:17.170Z,1.50
2023-05-19T15:17:46.792Z,1.47
2023-05-19T15:20:14.466Z,1.70
2023-05-19T15:22:42.067Z,1.17
2023-05-19T15:25:09.972Z,1.70
2023-05-19T15:27:37.567Z,1.37
2023-05-19T15:30:06.238Z,1.97
2023-05-19T15:32:34.170Z,1.43
2023-05-19T15:35:02.373Z,1.70
2023-05-19T15:37:29.928Z,1.47
2023-05-19T15:39:57.495Z,1.70
2023-05-19T15:42:25.079Z,1.50
2023-05-19T15:44:52.709Z,1.50
2023-05-19T15:47:20.371Z,2.13
2023-05-19T15:49:47.958Z,1.70
2023-05-19T15:52:15.692Z,1.50
2023-05-19T15:54:44.171Z,1.50
2023-05-19T15:57:13.406Z,2.50
2023-05-19T15:59:41.059Z,1.60
2023-05-19T16:02:09.032Z,1.30
2023-05-19T16:04:37.681Z,1.40
2023-05-19T16:07:06.301Z,1.80
2023-05-19T16:09:33.914Z,1.40
2023-05-19T16:12:01.482Z,1.47
2023-05-19T16:14:33.153Z,1.83
2023-05-19T16:17:01.296Z,1.67
2023-05-19T16:19:29.390Z,1.60
2023-05-19T16:21:57.124Z,1.60
2023-05-19T16:24:24.718Z,1.90
2023-05-19T16:26:53.527Z,1.80
2023-05-19T16:29:21.086Z,1.40
2023-05-19T16:31:49.178Z,1.53
2023-05-19T16:34:17.105Z,1.50
2023-05-19T16:36:44.753Z,1.47
2023-05-19T16:39:11.940Z,1.70
2023-05-19T16:41:39.649Z,1.90
2023-05-19T16:44:06.869Z,1.80
2023-05-19T16:46:34.298Z,1.63
2023-05-19T16:49:01.649Z,1.47
2023-05-19T16:51:28.882Z,1.33
2023-05-19T16:53:57.064Z,1.60
2023-05-19T16:56:24.270Z,1.70
2023-05-19T16:58:52.792Z,1.80
2023-05-19T17:01:21.473Z,1.80
2023-05-19T17:03:49.592Z,1.30
2023-05-19T17:06:16.821Z,1.80
2023-05-19T17:08:44.084Z,1.93
2023-05-19T17:11:11.522Z,1.70
2023-05-19T17:13:39.152Z,1.40
2023-05-19T17:16:07.032Z,1.20
2023-05-19T17:18:34.300Z,1.60
2023-05-19T17:21:03.971Z,1.53
2023-05-19T17:23:32.235Z,1.40
2023-05-19T17:25:59.552Z,1.27
2023-05-19T17:28:27.544Z,1.10
2023-05-19T17:30:54.883Z,1.27
2023-05-19T17:33:22.194Z,1.30
2023-05-19T17:35:49.651Z,1.40
2023-05-19T17:38:16.883Z,1.33
2023-05-19T17:40:44.378Z,1.37
2023-05-19T17:43:12.069Z,1.33
2023-05-19T17:45:39.380Z,1.23
2023-05-19T17:48:07.068Z,1.17
2023-05-19T17:50:35.207Z,1.47
2023-05-19T17:53:02.968Z,1.30
2023-05-19T17:55:31.413Z,1.40
2023-05-19T17:57:59.523Z,1.20
2023-05-19T18:00:27.105Z,1.40
2023-05-19T18:02:56.777Z,1.73
2023-05-19T18:05:24.558Z,1.30
2023-05-19T18:07:53.391Z,1.60
2023-05-19T18:10:21.512Z,1.93
2023-05-19T18:12:48.829Z,1.80
2023-05-19T18:15:16.197Z,1.70
2023-05-19T18:17:43.923Z,1.50
2023-05-19T18:20:12.084Z,1.70
2023-05-19T18:22:39.384Z,1.67
2023-05-19T18:25:07.258Z,2.00
2023-05-19T18:27:34.531Z,1.77
2023-05-19T18:30:01.811Z,1.60
2023-05-19T18:32:29.338Z,1.40
2023-05-19T18:34:56.672Z,1.37
2023-05-19T18:37:24.104Z,1.47
2023-05-19T18:39:51.422Z,1.30
2023-05-19T18:42:18.656Z,1.33
2023-05-19T18:44:47.324Z,1.33
2023-05-19T18:47:14.576Z,1.57
2023-05-19T18:49:42.366Z,1.10
2023-05-19T18:52:09.718Z,1.43
2023-05-19T18:54:38.272Z,1.13
2023-05-19T18:57:06.478Z,1.50
2023-05-19T18:59:33.915Z,1.00
2023-05-19T19:02:01.167Z,1.20
2023-05-19T19:04:28.408Z,1.10
2023-05-19T19:06:56.073Z,1.50
2023-05-19T19:09:23.358Z,1.03
2023-05-19T19:11:50.678Z,1.13
2023-05-19T19:14:19.308Z,1.20
2023-05-19T19:16:46.686Z,1.30
2023-05-19T19:19:14.075Z,1.13
2023-05-19T19:21:41.805Z,1.10
2023-05-19T19:24:09.086Z,1.17
2023-05-19T19:26:37.929Z,1.10
2023-05-19T19:29:05.192Z,1.30
2023-05-19T19:31:33.405Z,1.33
2023-05-19T19:34:05.298Z,1.00
2023-05-19T19:36:32.725Z,1.30
2023-05-19T19:38:59.920Z,1.30
2023-05-19T19:41:29.587Z,1.10
2023-05-19T19:43:56.890Z,1.17
2023-05-19T19:46:24.432Z,1.33
2023-05-19T19:48:52.150Z,1.13
2023-05-19T19:51:20.128Z,1.43
2023-05-19T19:53:47.331Z,1.00
2023-05-19T19:56:14.614Z,1.20
2023-05-19T19:58:41.888Z,1.23
2023-05-19T20:01:09.191Z,1.30
2023-05-19T20:03:36.595Z,1.03
2023-05-19T20:06:04.322Z,1.43
2023-05-19T20:08:31.846Z,1.37
2023-05-19T20:10:59.175Z,1.50
2023-05-19T20:13:26.406Z,1.03
2023-05-19T20:15:53.766Z,0.93
2023-05-19T20:18:21.418Z,1.50
2023-05-19T20:20:49.236Z,1.33
2023-05-19T20:23:16.585Z,1.50
2023-05-19T20:26:02.445Z,1.43
2023-05-19T20:28:31.382Z,1.30
2023-05-19T20:30:59.213Z,1.37
2023-05-19T20:33:26.495Z,1.50
2023-05-19T20:35:53.703Z,1.13
2023-05-19T20:38:20.930Z,1.40
2023-05-19T20:40:48.611Z,1.17
2023-05-19T20:43:16.025Z,1.40
2023-05-19T20:45:44.085Z,1.03
2023-05-19T20:48:11.672Z,1.70
2023-05-19T20:50:39.641Z,1.20
2023-05-19T20:53:07.740Z,1.20
2023-05-19T20:55:38.151Z,1.50
2023-05-19T20:58:05.700Z,1.63
2023-05-19T21:00:33.475Z,1.70
2023-05-19T21:03:01.384Z,1.30
2023-05-19T21:05:28.951Z,1.30
2023-05-19T21:07:56.449Z,1.50
2023-05-19T21:10:24.340Z,0.90
2023-05-19T21:12:52.115Z,1.40
2023-05-19T21:15:19.406Z,1.50
2023-05-19T21:17:47.462Z,1.37
2023-05-19T21:20:14.997Z,1.23
2023-05-19T21:22:42.287Z,1.20
2023-05-19T21:25:09.673Z,1.10
2023-05-19T21:27:36.915Z,1.53
2023-05-19T21:30:04.334Z,1.93
2023-05-19T21:32:32.281Z,2.23
2023-05-19T21:34:59.926Z,1.80
2023-05-19T21:37:27.708Z,2.30
2023-05-19T21:39:54.972Z,2.00
2023-05-19T21:42:22.247Z,2.90
2023-05-19T21:44:49.482Z,2.27
2023-05-19T21:47:16.671Z,2.00
2023-05-19T21:49:43.941Z,1.73
2023-05-19T21:52:11.125Z,1.17
2023-05-19T21:54:38.312Z,1.30
2023-05-19T21:57:05.762Z,1.43
2023-05-19T21:59:32.943Z,1.80
2023-05-19T22:02:00.313Z,1.20
2023-05-19T22:04:31.718Z,2.00
2023-05-19T22:06:58.895Z,1.40
2023-05-19T22:09:26.148Z,1.47
2023-05-19T22:11:53.370Z,1.23
2023-05-19T22:14:20.636Z,1.30
2023-05-19T22:16:48.378Z,1.20
2023-05-19T22:19:16.077Z,1.20
2023-05-19T22:21:43.398Z,1.20
2023-05-19T22:24:10.860Z,1.27
2023-05-19T22:26:42.429Z,1.43
2023-05-19T22:29:15.180Z,1.70
2023-05-19T22:31:42.394Z,1.10
2023-05-19T22:34:12.566Z,1.77
2023-05-19T22:36:41.176Z,1.43
2023-05-19T22:39:08.369Z,1.20
2023-05-19T22:41:35.574Z,1.23
2023-05-19T22:44:02.766Z,1.27
2023-05-19T22:46:30.077Z,1.43
2023-05-19T22:48:57.363Z,1.37
2023-05-19T22:51:24.659Z,1.10
2023-05-19T22:53:51.946Z,1.40
2023-05-19T22:56:19.160Z,1.30
2023-05-19T22:58:46.340Z,1.47
2023-05-19T23:01:13.641Z,1.30
2023-05-19T23:03:41.131Z,1.53
2023-05-19T23:06:08.761Z,1.17
2023-05-19T23:08:36.145Z,1.40
2023-05-19T23:11:04.463Z,1.40
2023-05-19T23:13:31.713Z,1.27
2023-05-19T23:15:58.910Z,1.20
2023-05-19T23:18:26.244Z,1.27
2023-05-19T23:20:53.893Z,1.50
2023-05-19T23:23:21.529Z,1.27
2023-05-19T23:25:48.787Z,1.27
2023-05-19T23:28:16.687Z,1.10
2023-05-19T23:30:43.952Z,1.53
2023-05-19T23:33:11.184Z,1.93
2023-05-19T23:35:39.500Z,1.13
2023-05-19T23:38:06.764Z,1.30
2023-05-19T23:40:33.955Z,1.27
2023-05-19T23:43:01.134Z,1.40
2023-05-19T23:45:28.355Z,0.97
2023-05-19T23:47:55.626Z,1.30
2023-05-19T23:50:23.063Z,1.00
2023-05-19T23:52:50.792Z,1.20
2023-05-19T23:55:19.987Z,1.37
2023-05-19T23:57:47.373Z,1.37
